sensor_id;sensor_type;location;lat;lon;timestamp;P1;durP1;ratioP1;P2;durP2;ratioP2
20365;SDS011;10341;49.894;8.822;2023-01-10T00:01:04;2.40;;;1.30;;
20365;SDS011;10341;49.894;8.822;2023-01-10T00:06:24;1.63;;;1.05;;
20365;SDS011;10341;49.894;8.822;2023-01-10T00:11:43;1.87;;;1.27;;
20365;SDS011;10341;49.894;8.822;2023-01-10T00:17:21;2.85;;;1.20;;
20365;SDS011;10341;49.894;8.822;2023-01-10T00:22:41;1.80;;;0.90;;
20365;SDS011;10341;49.894;8.822;2023-01-10T00:28:00;3.05;;;1.20;;
20365;SDS011;10341;49.894;8.822;2023-01-10T00:33:38;1.58;;;1.10;;
20365;SDS011;10341;49.894;8.822;2023-01-10T00:38:57;3.30;;;0.90;;
20365;SDS011;10341;49.894;8.822;2023-01-10T00:44:17;1.55;;;0.70;;
20365;SDS011;10341;49.894;8.822;2023-01-10T00:49:37;1.17;;;0.80;;
20365;SDS011;10341;49.894;8.822;2023-01-10T00:54:56;1.52;;;0.90;;
20365;SDS011;10341;49.894;8.822;2023-01-10T01:00:16;2.30;;;1.10;;
20365;SDS011;10341;49.894;8.822;2023-01-10T01:05:39;2.70;;;1.20;;
20365;SDS011;10341;49.894;8.822;2023-01-10T01:11:00;2.72;;;1.13;;
20365;SDS011;10341;49.894;8.822;2023-01-10T01:16:19;1.33;;;0.80;;
20365;SDS011;10341;49.894;8.822;2023-01-10T01:21:39;2.78;;;1.25;;
20365;SDS011;10341;49.894;8.822;2023-01-10T01:26:58;4.25;;;1.40;;
20365;SDS011;10341;49.894;8.822;2023-01-10T01:32:18;1.55;;;1.00;;
20365;SDS011;10341;49.894;8.822;2023-01-10T01:37:40;1.08;;;0.80;;
20365;SDS011;10341;49.894;8.822;2023-01-10T01:43:01;1.35;;;0.90;;
20365;SDS011;10341;49.894;8.822;2023-01-10T01:53:50;1.13;;;0.93;;
20365;SDS011;10341;49.894;8.822;2023-01-10T01:59:15;1.33;;;0.88;;
20365;SDS011;10341;49.894;8.822;2023-01-10T02:04:52;0.80;;;0.75;;
20365;SDS011;10341;49.894;8.822;2023-01-10T02:10:38;1.30;;;0.98;;
20365;SDS011;10341;49.894;8.822;2023-01-10T02:16:20;2.08;;;1.23;;
20365;SDS011;10341;49.894;8.822;2023-01-10T02:33:00;1.50;;;0.77;;
20365;SDS011;10341;49.894;8.822;2023-01-10T02:39:03;0.73;;;0.50;;
20365;SDS011;10341;49.894;8.822;2023-01-10T02:44:39;1.27;;;0.75;;
20365;SDS011;10341;49.894;8.822;2023-01-10T02:50:24;1.15;;;0.60;;
20365;SDS011;10341;49.894;8.822;2023-01-10T03:01:57;1.63;;;0.80;;
20365;SDS011;10341;49.894;8.822;2023-01-10T03:18:24;0.67;;;0.60;;
20365;SDS011;10341;49.894;8.822;2023-01-10T03:24:00;2.00;;;0.80;;
20365;SDS011;10341;49.894;8.822;2023-01-10T03:29:27;3.45;;;0.90;;
20365;SDS011;10341;49.894;8.822;2023-01-10T03:34:49;4.35;;;0.90;;
20365;SDS011;10341;49.894;8.822;2023-01-10T03:45:59;1.00;;;0.73;;
20365;SDS011;10341;49.894;8.822;2023-01-10T03:51:26;1.83;;;0.90;;
20365;SDS011;10341;49.894;8.822;2023-01-10T03:56:47;4.00;;;1.30;;
20365;SDS011;10341;49.894;8.822;2023-01-10T04:02:07;2.08;;;0.95;;
20365;SDS011;10341;49.894;8.822;2023-01-10T04:07:26;3.53;;;1.03;;
20365;SDS011;10341;49.894;8.822;2023-01-10T04:12:46;2.47;;;1.52;;
20365;SDS011;10341;49.894;8.822;2023-01-10T04:18:06;2.75;;;1.10;;
20365;SDS011;10341;49.894;8.822;2023-01-10T04:23:25;3.90;;;0.95;;
20365;SDS011;10341;49.894;8.822;2023-01-10T04:28:45;2.20;;;0.90;;
20365;SDS011;10341;49.894;8.822;2023-01-10T04:34:05;2.40;;;0.90;;
20365;SDS011;10341;49.894;8.822;2023-01-10T04:39:25;3.95;;;1.20;;
20365;SDS011;10341;49.894;8.822;2023-01-10T04:44:44;3.67;;;1.10;;
20365;SDS011;10341;49.894;8.822;2023-01-10T04:50:04;3.22;;;1.30;;
20365;SDS011;10341;49.894;8.822;2023-01-10T04:55:23;2.65;;;1.50;;
20365;SDS011;10341;49.894;8.822;2023-01-10T05:00:43;6.07;;;1.42;;
20365;SDS011;10341;49.894;8.822;2023-01-10T05:06:03;5.10;;;1.63;;
20365;SDS011;10341;49.894;8.822;2023-01-10T05:11:23;6.03;;;1.50;;
20365;SDS011;10341;49.894;8.822;2023-01-10T05:16:42;7.25;;;1.85;;
20365;SDS011;10341;49.894;8.822;2023-01-10T05:22:01;4.77;;;1.80;;
20365;SDS011;10341;49.894;8.822;2023-01-10T05:27:21;4.25;;;1.45;;
20365;SDS011;10341;49.894;8.822;2023-01-10T05:32:40;4.78;;;1.65;;
20365;SDS011;10341;49.894;8.822;2023-01-10T05:38:00;6.70;;;1.83;;
20365;SDS011;10341;49.894;8.822;2023-01-10T05:43:19;5.70;;;1.70;;
20365;SDS011;10341;49.894;8.822;2023-01-10T05:48:39;3.80;;;1.52;;
20365;SDS011;10341;49.894;8.822;2023-01-10T05:53:59;4.90;;;1.75;;
20365;SDS011;10341;49.894;8.822;2023-01-10T05:59:18;7.40;;;1.83;;
20365;SDS011;10341;49.894;8.822;2023-01-10T06:04:38;6.95;;;1.90;;
20365;SDS011;10341;49.894;8.822;2023-01-10T06:09:57;6.65;;;1.70;;
20365;SDS011;10341;49.894;8.822;2023-01-10T06:15:16;6.43;;;1.85;;
20365;SDS011;10341;49.894;8.822;2023-01-10T06:20:36;10.10;;;2.25;;
20365;SDS011;10341;49.894;8.822;2023-01-10T06:25:55;4.77;;;2.00;;
20365;SDS011;10341;49.894;8.822;2023-01-10T06:31:14;5.97;;;1.60;;
20365;SDS011;10341;49.894;8.822;2023-01-10T06:36:34;5.43;;;2.17;;
20365;SDS011;10341;49.894;8.822;2023-01-10T06:41:53;4.38;;;1.98;;
20365;SDS011;10341;49.894;8.822;2023-01-10T06:47:13;5.03;;;1.83;;
20365;SDS011;10341;49.894;8.822;2023-01-10T06:52:32;4.28;;;1.88;;
20365;SDS011;10341;49.894;8.822;2023-01-10T06:57:59;6.72;;;1.83;;
20365;SDS011;10341;49.894;8.822;2023-01-10T07:03:19;8.00;;;2.33;;
20365;SDS011;10341;49.894;8.822;2023-01-10T07:08:39;6.22;;;2.00;;
20365;SDS011;10341;49.894;8.822;2023-01-10T07:14:00;7.95;;;1.60;;
20365;SDS011;10341;49.894;8.822;2023-01-10T07:24:39;7.07;;;1.98;;
20365;SDS011;10341;49.894;8.822;2023-01-10T07:29:58;7.57;;;1.90;;
20365;SDS011;10341;49.894;8.822;2023-01-10T07:35:18;5.00;;;2.13;;
20365;SDS011;10341;49.894;8.822;2023-01-10T07:40:37;8.55;;;1.80;;
20365;SDS011;10341;49.894;8.822;2023-01-10T07:45:58;3.58;;;1.70;;
20365;SDS011;10341;49.894;8.822;2023-01-10T07:51:18;11.30;;;3.67;;
20365;SDS011;10341;49.894;8.822;2023-01-10T07:56:37;11.32;;;2.40;;
20365;SDS011;10341;49.894;8.822;2023-01-10T08:01:57;9.27;;;2.05;;
20365;SDS011;10341;49.894;8.822;2023-01-10T08:07:16;9.68;;;1.83;;
20365;SDS011;10341;49.894;8.822;2023-01-10T08:12:36;7.18;;;2.00;;
20365;SDS011;10341;49.894;8.822;2023-01-10T08:18:02;8.43;;;2.47;;
20365;SDS011;10341;49.894;8.822;2023-01-10T08:23:21;6.80;;;2.05;;
20365;SDS011;10341;49.894;8.822;2023-01-10T08:28:41;7.53;;;1.92;;
20365;SDS011;10341;49.894;8.822;2023-01-10T08:34:00;10.55;;;2.05;;
20365;SDS011;10341;49.894;8.822;2023-01-10T08:39:20;10.40;;;2.20;;
20365;SDS011;10341;49.894;8.822;2023-01-10T08:44:40;5.32;;;1.65;;
20365;SDS011;10341;49.894;8.822;2023-01-10T08:49:59;6.50;;;2.00;;
20365;SDS011;10341;49.894;8.822;2023-01-10T08:55:19;7.03;;;1.97;;
20365;SDS011;10341;49.894;8.822;2023-01-10T09:00:38;10.07;;;2.15;;
20365;SDS011;10341;49.894;8.822;2023-01-10T09:05:58;7.75;;;2.20;;
20365;SDS011;10341;49.894;8.822;2023-01-10T09:11:19;6.93;;;1.80;;
20365;SDS011;10341;49.894;8.822;2023-01-10T09:16:38;11.70;;;3.33;;
20365;SDS011;10341;49.894;8.822;2023-01-10T09:21:57;5.25;;;1.92;;
20365;SDS011;10341;49.894;8.822;2023-01-10T09:27:17;9.18;;;2.08;;
20365;SDS011;10341;49.894;8.822;2023-01-10T09:32:36;6.57;;;1.90;;
20365;SDS011;10341;49.894;8.822;2023-01-10T09:37:56;5.57;;;1.63;;
20365;SDS011;10341;49.894;8.822;2023-01-10T09:49:02;6.28;;;1.88;;
20365;SDS011;10341;49.894;8.822;2023-01-10T09:54:28;7.88;;;1.60;;
20365;SDS011;10341;49.894;8.822;2023-01-10T09:59:51;10.63;;;2.20;;
20365;SDS011;10341;49.894;8.822;2023-01-10T10:05:16;8.35;;;2.17;;
20365;SDS011;10341;49.894;8.822;2023-01-10T10:10:39;5.88;;;1.70;;
20365;SDS011;10341;49.894;8.822;2023-01-10T10:21:42;5.95;;;1.65;;
20365;SDS011;10341;49.894;8.822;2023-01-10T10:27:22;5.25;;;1.45;;
20365;SDS011;10341;49.894;8.822;2023-01-10T10:33:04;3.85;;;1.25;;
20365;SDS011;10341;49.894;8.822;2023-01-10T10:38:37;11.23;;;2.38;;
20365;SDS011;10341;49.894;8.822;2023-01-10T10:44:07;8.55;;;1.80;;
20365;SDS011;10341;49.894;8.822;2023-01-10T10:50:01;8.48;;;1.90;;
20365;SDS011;10341;49.894;8.822;2023-01-10T10:55:35;7.82;;;1.70;;
20365;SDS011;10341;49.894;8.822;2023-01-10T11:00:57;7.35;;;2.10;;
20365;SDS011;10341;49.894;8.822;2023-01-10T11:06:18;8.07;;;1.98;;
20365;SDS011;10341;49.894;8.822;2023-01-10T11:11:42;6.82;;;1.92;;
20365;SDS011;10341;49.894;8.822;2023-01-10T11:22:47;10.35;;;2.38;;
20365;SDS011;10341;49.894;8.822;2023-01-10T11:28:11;5.78;;;1.60;;
20365;SDS011;10341;49.894;8.822;2023-01-10T11:33:36;8.73;;;2.13;;
20365;SDS011;10341;49.894;8.822;2023-01-10T11:38:58;12.90;;;2.00;;
20365;SDS011;10341;49.894;8.822;2023-01-10T11:44:28;14.10;;;1.98;;
20365;SDS011;10341;49.894;8.822;2023-01-10T11:49:47;9.70;;;1.98;;
20365;SDS011;10341;49.894;8.822;2023-01-10T11:55:08;12.23;;;1.85;;
20365;SDS011;10341;49.894;8.822;2023-01-10T12:00:32;8.32;;;2.20;;
20365;SDS011;10341;49.894;8.822;2023-01-10T12:05:59;14.85;;;2.47;;
20365;SDS011;10341;49.894;8.822;2023-01-10T12:11:26;8.52;;;2.25;;
20365;SDS011;10341;49.894;8.822;2023-01-10T12:16:57;6.10;;;2.33;;
20365;SDS011;10341;49.894;8.822;2023-01-10T12:22:17;12.85;;;2.50;;
20365;SDS011;10341;49.894;8.822;2023-01-10T12:27:42;12.75;;;2.05;;
20365;SDS011;10341;49.894;8.822;2023-01-10T12:33:04;13.40;;;2.75;;
20365;SDS011;10341;49.894;8.822;2023-01-10T12:38:31;7.53;;;1.90;;
20365;SDS011;10341;49.894;8.822;2023-01-10T12:44:27;9.43;;;2.60;;
20365;SDS011;10341;49.894;8.822;2023-01-10T12:49:58;8.13;;;2.10;;
20365;SDS011;10341;49.894;8.822;2023-01-10T12:55:19;9.20;;;2.35;;
20365;SDS011;10341;49.894;8.822;2023-01-10T13:00:41;7.32;;;1.80;;
20365;SDS011;10341;49.894;8.822;2023-01-10T13:06:04;8.52;;;2.10;;
20365;SDS011;10341;49.894;8.822;2023-01-10T13:11:24;9.63;;;1.73;;
20365;SDS011;10341;49.894;8.822;2023-01-10T13:16:49;12.15;;;1.92;;
20365;SDS011;10341;49.894;8.822;2023-01-10T13:22:21;6.20;;;1.73;;
20365;SDS011;10341;49.894;8.822;2023-01-10T13:27:42;5.40;;;1.53;;
20365;SDS011;10341;49.894;8.822;2023-01-10T13:33:03;8.20;;;2.00;;
20365;SDS011;10341;49.894;8.822;2023-01-10T13:38:26;7.60;;;2.13;;
20365;SDS011;10341;49.894;8.822;2023-01-10T13:43:58;9.77;;;2.10;;
20365;SDS011;10341;49.894;8.822;2023-01-10T13:49:24;5.63;;;1.70;;
20365;SDS011;10341;49.894;8.822;2023-01-10T13:55:00;9.18;;;2.28;;
20365;SDS011;10341;49.894;8.822;2023-01-10T14:11:48;10.88;;;1.65;;
20365;SDS011;10341;49.894;8.822;2023-01-10T14:17:20;9.95;;;1.50;;
20365;SDS011;10341;49.894;8.822;2023-01-10T14:22:58;8.05;;;1.73;;
20365;SDS011;10341;49.894;8.822;2023-01-10T14:28:25;13.38;;;1.95;;
20365;SDS011;10341;49.894;8.822;2023-01-10T14:33:47;10.55;;;2.33;;
20365;SDS011;10341;49.894;8.822;2023-01-10T14:44:36;12.02;;;2.67;;
20365;SDS011;10341;49.894;8.822;2023-01-10T14:50:03;8.20;;;2.30;;
20365;SDS011;10341;49.894;8.822;2023-01-10T14:55:26;8.77;;;2.10;;
20365;SDS011;10341;49.894;8.822;2023-01-10T15:00:45;9.93;;;2.53;;
20365;SDS011;10341;49.894;8.822;2023-01-10T15:06:05;15.90;;;2.67;;
20365;SDS011;10341;49.894;8.822;2023-01-10T15:11:25;9.88;;;2.20;;
20365;SDS011;10341;49.894;8.822;2023-01-10T15:16:45;12.27;;;2.17;;
20365;SDS011;10341;49.894;8.822;2023-01-10T15:27:45;14.30;;;2.55;;
20365;SDS011;10341;49.894;8.822;2023-01-10T15:33:11;11.50;;;2.42;;
20365;SDS011;10341;49.894;8.822;2023-01-10T15:38:34;9.40;;;2.28;;
20365;SDS011;10341;49.894;8.822;2023-01-10T15:44:09;8.13;;;2.22;;
20365;SDS011;10341;49.894;8.822;2023-01-10T15:49:53;10.73;;;2.10;;
20365;SDS011;10341;49.894;8.822;2023-01-10T16:00:57;7.03;;;2.47;;
20365;SDS011;10341;49.894;8.822;2023-01-10T16:06:29;11.75;;;2.28;;
20365;SDS011;10341;49.894;8.822;2023-01-10T16:11:52;9.02;;;2.50;;
20365;SDS011;10341;49.894;8.822;2023-01-10T16:17:30;11.85;;;2.90;;
20365;SDS011;10341;49.894;8.822;2023-01-10T16:22:50;12.73;;;2.70;;
20365;SDS011;10341;49.894;8.822;2023-01-10T16:28:10;16.35;;;2.15;;
20365;SDS011;10341;49.894;8.822;2023-01-10T16:33:31;6.78;;;1.58;;
20365;SDS011;10341;49.894;8.822;2023-01-10T16:38:51;7.10;;;1.60;;
20365;SDS011;10341;49.894;8.822;2023-01-10T16:44:10;5.68;;;1.30;;
20365;SDS011;10341;49.894;8.822;2023-01-10T16:49:30;5.80;;;1.70;;
20365;SDS011;10341;49.894;8.822;2023-01-10T16:54:50;7.53;;;1.48;;
20365;SDS011;10341;49.894;8.822;2023-01-10T17:00:09;11.25;;;1.85;;
20365;SDS011;10341;49.894;8.822;2023-01-10T17:05:29;4.78;;;1.42;;
20365;SDS011;10341;49.894;8.822;2023-01-10T17:10:52;5.33;;;1.53;;
20365;SDS011;10341;49.894;8.822;2023-01-10T17:16:17;7.13;;;1.50;;
20365;SDS011;10341;49.894;8.822;2023-01-10T17:21:36;4.38;;;1.45;;
20365;SDS011;10341;49.894;8.822;2023-01-10T17:26:55;9.67;;;1.80;;
20365;SDS011;10341;49.894;8.822;2023-01-10T17:32:15;8.25;;;2.03;;
20365;SDS011;10341;49.894;8.822;2023-01-10T17:37:34;8.73;;;1.75;;
20365;SDS011;10341;49.894;8.822;2023-01-10T17:42:54;7.65;;;2.78;;
20365;SDS011;10341;49.894;8.822;2023-01-10T17:48:13;3.78;;;1.50;;
20365;SDS011;10341;49.894;8.822;2023-01-10T17:53:36;6.45;;;1.60;;
20365;SDS011;10341;49.894;8.822;2023-01-10T17:58:55;6.70;;;2.35;;
20365;SDS011;10341;49.894;8.822;2023-01-10T18:04:14;8.65;;;2.15;;
20365;SDS011;10341;49.894;8.822;2023-01-10T18:09:33;9.43;;;3.33;;
20365;SDS011;10341;49.894;8.822;2023-01-10T18:15:05;6.40;;;2.50;;
20365;SDS011;10341;49.894;8.822;2023-01-10T18:20:25;6.47;;;2.17;;
20365;SDS011;10341;49.894;8.822;2023-01-10T18:31:23;2.67;;;1.25;;
20365;SDS011;10341;49.894;8.822;2023-01-10T18:36:43;4.50;;;1.60;;
20365;SDS011;10341;49.894;8.822;2023-01-10T18:42:02;4.93;;;1.40;;
20365;SDS011;10341;49.894;8.822;2023-01-10T18:47:22;3.25;;;1.35;;
20365;SDS011;10341;49.894;8.822;2023-01-10T18:52:41;4.43;;;1.42;;
20365;SDS011;10341;49.894;8.822;2023-01-10T18:58:01;6.80;;;1.40;;
20365;SDS011;10341;49.894;8.822;2023-01-10T19:03:20;3.47;;;1.70;;
20365;SDS011;10341;49.894;8.822;2023-01-10T19:08:41;5.50;;;1.63;;
20365;SDS011;10341;49.894;8.822;2023-01-10T19:14:01;5.00;;;1.27;;
20365;SDS011;10341;49.894;8.822;2023-01-10T19:19:21;5.55;;;1.70;;
20365;SDS011;10341;49.894;8.822;2023-01-10T19:24:41;7.75;;;1.73;;
20365;SDS011;10341;49.894;8.822;2023-01-10T19:30:00;5.93;;;1.52;;
20365;SDS011;10341;49.894;8.822;2023-01-10T19:35:20;5.65;;;1.63;;
20365;SDS011;10341;49.894;8.822;2023-01-10T19:40:39;6.32;;;1.60;;
20365;SDS011;10341;49.894;8.822;2023-01-10T19:46:03;6.35;;;1.77;;
20365;SDS011;10341;49.894;8.822;2023-01-10T19:51:24;6.07;;;1.77;;
20365;SDS011;10341;49.894;8.822;2023-01-10T19:56:43;6.10;;;2.17;;
20365;SDS011;10341;49.894;8.822;2023-01-10T20:02:03;5.65;;;1.73;;
20365;SDS011;10341;49.894;8.822;2023-01-10T20:07:23;6.45;;;2.17;;
20365;SDS011;10341;49.894;8.822;2023-01-10T20:12:43;6.53;;;1.70;;
20365;SDS011;10341;49.894;8.822;2023-01-10T20:18:02;5.95;;;2.17;;
20365;SDS011;10341;49.894;8.822;2023-01-10T20:23:22;12.18;;;2.80;;
20365;SDS011;10341;49.894;8.822;2023-01-10T20:28:41;10.95;;;4.00;;
20365;SDS011;10341;49.894;8.822;2023-01-10T20:34:02;5.82;;;2.10;;
20365;SDS011;10341;49.894;8.822;2023-01-10T20:44:45;5.63;;;1.65;;
20365;SDS011;10341;49.894;8.822;2023-01-10T20:50:05;7.53;;;1.77;;
20365;SDS011;10341;49.894;8.822;2023-01-10T20:55:25;7.85;;;1.77;;
20365;SDS011;10341;49.894;8.822;2023-01-10T21:00:44;6.47;;;2.05;;
20365;SDS011;10341;49.894;8.822;2023-01-10T21:06:04;10.27;;;2.08;;
20365;SDS011;10341;49.894;8.822;2023-01-10T21:11:24;5.63;;;2.10;;
20365;SDS011;10341;49.894;8.822;2023-01-10T21:16:43;8.40;;;2.63;;
20365;SDS011;10341;49.894;8.822;2023-01-10T21:22:03;8.68;;;2.25;;
20365;SDS011;10341;49.894;8.822;2023-01-10T21:27:22;8.63;;;2.47;;
20365;SDS011;10341;49.894;8.822;2023-01-10T21:32:41;6.25;;;2.53;;
20365;SDS011;10341;49.894;8.822;2023-01-10T21:38:01;5.18;;;2.70;;
20365;SDS011;10341;49.894;8.822;2023-01-10T21:43:21;7.38;;;2.28;;
20365;SDS011;10341;49.894;8.822;2023-01-10T21:48:41;6.13;;;1.80;;
20365;SDS011;10341;49.894;8.822;2023-01-10T21:54:00;10.97;;;2.20;;
20365;SDS011;10341;49.894;8.822;2023-01-10T21:59:19;7.13;;;2.10;;
20365;SDS011;10341;49.894;8.822;2023-01-10T22:04:39;14.23;;;2.28;;
20365;SDS011;10341;49.894;8.822;2023-01-10T22:10:00;6.05;;;1.98;;
20365;SDS011;10341;49.894;8.822;2023-01-10T22:15:19;5.95;;;2.28;;
20365;SDS011;10341;49.894;8.822;2023-01-10T22:20:42;7.38;;;1.75;;
20365;SDS011;10341;49.894;8.822;2023-01-10T22:26:03;3.28;;;1.38;;
20365;SDS011;10341;49.894;8.822;2023-01-10T22:31:24;5.90;;;1.50;;
20365;SDS011;10341;49.894;8.822;2023-01-10T22:36:44;7.53;;;1.70;;
20365;SDS011;10341;49.894;8.822;2023-01-10T22:42:03;10.10;;;2.10;;
20365;SDS011;10341;49.894;8.822;2023-01-10T22:47:22;6.10;;;1.80;;
20365;SDS011;10341;49.894;8.822;2023-01-10T22:52:42;7.75;;;2.08;;
20365;SDS011;10341;49.894;8.822;2023-01-10T22:58:04;5.15;;;1.90;;
20365;SDS011;10341;49.894;8.822;2023-01-10T23:03:24;5.82;;;1.73;;
20365;SDS011;10341;49.894;8.822;2023-01-10T23:08:44;6.53;;;2.55;;
20365;SDS011;10341;49.894;8.822;2023-01-10T23:14:04;4.40;;;1.52;;
20365;SDS011;10341;49.894;8.822;2023-01-10T23:19:23;4.65;;;1.30;;
20365;SDS011;10341;49.894;8.822;2023-01-10T23:24:43;5.22;;;1.60;;
20365;SDS011;10341;49.894;8.822;2023-01-10T23:30:03;4.10;;;1.50;;
20365;SDS011;10341;49.894;8.822;2023-01-10T23:35:23;2.78;;;0.95;;
20365;SDS011;10341;49.894;8.822;2023-01-10T23:40:43;3.80;;;0.95;;
20365;SDS011;10341;49.894;8.822;2023-01-10T23:46:03;4.32;;;1.33;;
20365;SDS011;10341;49.894;8.822;2023-01-10T23:51:24;7.45;;;1.65;;
20365;SDS011;10341;49.894;8.822;2023-01-10T23:56:43;4.30;;;1.17;;
